createdAt,value
2023-05-12T00:01:47.616Z,101857.85
2023-05-12T00:04:16.200Z,101857.86
2023-05-12T00:06:44.289Z,101856.66
2023-05-12T00:09:12.291Z,101856.97
2023-05-12T00:11:40.736Z,101858.34
2023-05-12T00:14:09.196Z,101859.83
2023-05-12T00:16:37.378Z,101857.48
2023-05-12T00:19:05.815Z,101858.33
2023-05-12T00:21:33.894Z,101860.39
2023-05-12T00:24:01.836Z,101859.66
2023-05-12T00:26:29.922Z,101857.77
2023-05-12T00:28:58.200Z,101858.90
2023-05-12T00:31:26.346Z,101859.96
2023-05-12T00:33:54.410Z,101859.57
2023-05-12T00:36:22.727Z,101857.27
2023-05-12T00:38:50.926Z,101860.44
2023-05-12T00:41:18.965Z,101857.76
2023-05-12T00:43:46.881Z,101856.45
2023-05-12T00:46:15.665Z,101855.23
2023-05-12T00:48:45.034Z,101856.81
2023-05-12T00:51:13.862Z,101854.20
2023-05-12T00:53:49.872Z,101855.98
2023-05-12T00:56:21.976Z,101854.52
2023-05-12T00:58:50.111Z,101853.80
2023-05-12T01:01:18.598Z,101855.83
2023-05-12T01:03:48.798Z,101858.16
2023-05-12T01:06:33.091Z,101857.43
2023-05-12T01:09:02.025Z,101854.64
2023-05-12T01:11:30.052Z,101856.11
2023-05-12T01:13:58.032Z,101859.53
2023-05-12T01:16:32.268Z,101862.95
2023-05-12T01:19:06.072Z,101860.41
2023-05-12T01:21:35.527Z,101862.54
2023-05-12T01:24:09.285Z,101861.61
2023-05-12T01:26:38.429Z,101859.95
2023-05-12T01:29:07.830Z,101854.65
2023-05-12T01:31:36.377Z,101852.30
2023-05-12T01:34:04.688Z,101853.99
2023-05-12T01:36:32.870Z,101847.55
2023-05-12T01:39:01.051Z,101847.80
2023-05-12T01:41:29.312Z,101853.58
2023-05-12T01:43:57.486Z,101847.91
2023-05-12T01:46:26.105Z,101852.06
2023-05-12T01:48:56.390Z,101859.11
2023-05-12T01:51:24.305Z,101863.48
2023-05-12T01:53:52.839Z,101864.13
2023-05-12T01:56:21.890Z,101859.27
2023-05-12T01:58:50.429Z,101857.33
2023-05-12T02:01:23.492Z,101857.69
2023-05-12T02:03:51.733Z,101860.04
2023-05-12T02:06:19.924Z,101858.00
2023-05-12T02:08:48.642Z,101854.28
2023-05-12T02:11:17.737Z,101854.98
2023-05-12T02:13:45.812Z,101855.17
2023-05-12T02:16:13.949Z,101852.52
2023-05-12T02:18:42.280Z,101851.05
2023-05-12T02:21:10.432Z,101854.91
2023-05-12T02:23:38.715Z,101864.31
2023-05-12T02:26:06.884Z,101866.83
2023-05-12T02:28:37.520Z,101866.54
2023-05-12T02:31:06.009Z,101867.02
2023-05-12T02:33:34.037Z,101866.55
2023-05-12T02:36:02.430Z,101870.36
2023-05-12T02:38:30.620Z,101871.52
2023-05-12T02:40:58.694Z,101870.40
2023-05-12T02:43:27.014Z,101870.02
2023-05-12T02:45:55.627Z,101867.96
2023-05-12T02:48:23.728Z,101868.13
2023-05-12T02:50:52.038Z,101869.40
2023-05-12T02:53:20.696Z,101866.84
2023-05-12T02:55:49.189Z,101870.43
2023-05-12T02:58:17.395Z,101865.77
2023-05-12T03:00:45.534Z,101869.91
2023-05-12T03:03:13.896Z,101868.45
2023-05-12T03:05:42.184Z,101869.34
2023-05-12T03:08:10.360Z,101867.06
2023-05-12T03:10:38.527Z,101866.46
2023-05-12T03:13:06.647Z,101866.40
2023-05-12T03:15:34.692Z,101864.48
2023-05-12T03:18:02.984Z,101868.96
2023-05-12T03:20:31.088Z,101870.19
2023-05-12T03:23:00.110Z,101874.64
2023-05-12T03:25:28.396Z,101874.09
2023-05-12T03:27:56.456Z,101875.39
2023-05-12T03:30:24.485Z,101876.73
2023-05-12T03:32:52.833Z,101873.92
2023-05-12T03:35:21.101Z,101872.77
2023-05-12T03:37:49.934Z,101868.35
2023-05-12T03:40:19.265Z,101870.80
2023-05-12T03:42:48.060Z,101867.09
2023-05-12T03:45:16.630Z,101869.61
2023-05-12T03:47:44.922Z,101869.85
2023-05-12T03:50:13.346Z,101869.06
2023-05-12T03:52:41.642Z,101865.42
2023-05-12T03:55:10.690Z,101865.80
2023-05-12T03:57:39.179Z,101862.02
2023-05-12T04:00:07.992Z,101859.73
2023-05-12T04:02:44.626Z,101861.64
2023-05-12T04:05:14.539Z,101855.89
2023-05-12T04:07:43.114Z,101857.55
2023-05-12T04:10:11.398Z,101863.09
2023-05-12T04:12:39.374Z,101867.25
2023-05-12T04:15:09.131Z,101868.22
2023-05-12T04:17:37.191Z,101869.79
2023-05-12T04:20:06.240Z,101868.29
2023-05-12T04:22:34.529Z,101871.03
2023-05-12T04:25:02.592Z,101871.45
2023-05-12T04:27:30.529Z,101868.02
2023-05-12T04:29:58.731Z,101873.38
2023-05-12T04:32:26.738Z,101872.22
2023-05-12T04:34:56.701Z,101875.52
2023-05-12T04:37:24.921Z,101876.80
2023-05-12T04:39:53.468Z,101876.15
2023-05-12T04:42:21.960Z,101876.94
2023-05-12T04:44:50.130Z,101876.25
2023-05-12T04:47:18.153Z,101879.27
2023-05-12T04:49:46.273Z,101881.41
2023-05-12T04:52:15.885Z,101884.07
2023-05-12T04:54:44.410Z,101886.02
2023-05-12T04:57:12.981Z,101887.95
2023-05-12T04:59:42.604Z,101887.17
2023-05-12T05:02:11.997Z,101890.50
2023-05-12T05:04:40.640Z,101892.95
2023-05-12T05:07:09.954Z,101889.73
2023-05-12T05:09:38.113Z,101897.86
2023-05-12T05:12:07.354Z,101897.20
2023-05-12T05:14:35.607Z,101906.76
2023-05-12T05:17:03.847Z,101907.53
2023-05-12T05:19:44.550Z,101903.61
2023-05-12T05:22:20.096Z,101907.15
2023-05-12T05:24:48.801Z,101906.98
2023-05-12T05:27:17.069Z,101905.54
2023-05-12T05:29:45.224Z,101906.96
2023-05-12T05:32:13.280Z,101915.81
2023-05-12T05:34:41.605Z,101923.27
2023-05-12T05:37:09.802Z,101923.16
2023-05-12T05:39:38.391Z,101921.80
2023-05-12T05:42:07.108Z,101926.27
2023-05-12T05:44:36.250Z,101926.90
2023-05-12T05:47:05.745Z,101928.05
2023-05-12T05:49:33.801Z,101931.21
2023-05-12T05:52:02.360Z,101934.80
2023-05-12T05:54:30.539Z,101931.14
2023-05-12T05:57:02.444Z,101931.45
2023-05-12T05:59:31.189Z,101931.03
2023-05-12T06:01:59.422Z,101935.77
2023-05-12T06:04:28.068Z,101933.08
2023-05-12T06:06:56.418Z,101931.30
2023-05-12T06:09:24.491Z,101927.77
2023-05-12T06:11:52.768Z,101924.88
2023-05-12T06:14:20.841Z,101923.41
2023-05-12T06:16:49.240Z,101927.50
2023-05-12T06:19:17.496Z,101927.20
2023-05-12T06:21:45.482Z,101927.29
2023-05-12T06:24:14.037Z,101930.13
2023-05-12T06:26:43.109Z,101932.21
2023-05-12T06:29:11.113Z,101937.02
2023-05-12T06:31:39.132Z,101937.90
2023-05-12T06:34:07.119Z,101942.63
2023-05-12T06:36:35.065Z,101944.01
2023-05-12T06:39:03.103Z,101945.27
2023-05-12T06:41:32.395Z,101952.15
2023-05-12T06:44:02.727Z,101952.89
2023-05-12T06:46:30.726Z,101954.89
2023-05-12T06:49:00.489Z,101957.04
2023-05-12T06:51:28.523Z,101958.66
2023-05-12T06:53:56.536Z,101963.34
2023-05-12T06:56:24.821Z,101966.86
2023-05-12T06:58:54.633Z,101969.83
2023-05-12T07:01:22.820Z,101977.20
2023-05-12T07:03:51.721Z,101976.61
2023-05-12T07:06:19.931Z,101978.60
2023-05-12T07:08:48.759Z,101977.66
2023-05-12T07:11:22.893Z,101973.87
2023-05-12T07:13:51.869Z,101971.16
2023-05-12T07:16:20.026Z,101970.89
2023-05-12T07:18:48.470Z,101970.44
2023-05-12T07:21:16.801Z,101968.40
2023-05-12T07:23:45.179Z,101973.21
2023-05-12T07:26:13.246Z,101970.08
2023-05-12T07:28:41.303Z,101968.52
2023-05-12T07:31:09.477Z,101974.36
2023-05-12T07:33:37.425Z,101973.45
2023-05-12T07:36:06.147Z,101976.17
2023-05-12T07:38:34.224Z,101973.42
2023-05-12T07:41:02.299Z,101973.95
2023-05-12T07:43:30.476Z,101974.20
2023-05-12T07:46:00.938Z,101975.02
2023-05-12T07:48:29.270Z,101971.55
2023-05-12T07:50:57.857Z,101972.92
2023-05-12T07:53:25.816Z,101970.45
2023-05-12T07:55:53.763Z,101976.63
2023-05-12T07:58:21.749Z,101981.23
2023-05-12T08:00:49.848Z,101983.47
2023-05-12T08:03:18.293Z,101983.57
2023-05-12T08:05:46.468Z,101991.30
2023-05-12T08:08:16.887Z,101989.29
2023-05-12T08:10:44.972Z,101987.69
2023-05-12T08:13:13.009Z,101990.52
2023-05-12T08:15:41.233Z,101985.33
2023-05-12T08:18:09.760Z,101984.45
2023-05-12T08:20:37.988Z,101984.00
2023-05-12T08:23:06.020Z,101986.70
2023-05-12T08:25:36.158Z,101990.55
2023-05-12T08:28:04.803Z,101994.87
2023-05-12T08:30:33.070Z,101996.74
2023-05-12T08:33:01.829Z,101997.18
2023-05-12T08:35:30.530Z,101997.58
2023-05-12T08:37:59.532Z,101997.83
2023-05-12T08:40:31.094Z,101993.73
2023-05-12T08:43:25.144Z,101998.34
2023-05-12T08:46:00.261Z,102002.15
2023-05-12T08:48:30.201Z,102004.29
2023-05-12T08:50:59.542Z,102004.68
2023-05-12T08:53:29.127Z,102006.36
2023-05-12T08:58:49.510Z,102012.02
2023-05-12T09:01:18.402Z,102015.48
2023-05-12T09:03:46.734Z,102013.46
2023-05-12T09:06:15.128Z,102013.80
2023-05-12T09:08:44.278Z,102015.27
2023-05-12T09:11:15.006Z,102018.98
2023-05-12T09:13:51.164Z,102014.73
2023-05-12T09:16:25.237Z,102015.83
2023-05-12T09:18:58.963Z,102017.45
2023-05-12T09:21:27.964Z,102015.66
2023-05-12T09:24:07.322Z,102016.37
2023-05-12T09:26:49.304Z,102022.98
2023-05-12T09:29:30.825Z,102019.94
2023-05-12T09:32:04.397Z,102025.84
2023-05-12T09:34:41.395Z,102026.73
2023-05-12T09:37:10.023Z,102026.20
2023-05-12T09:39:38.445Z,102029.45
2023-05-12T09:42:12.237Z,102030.16
2023-05-12T09:44:41.431Z,102030.48
2023-05-12T09:47:10.608Z,102028.96
2023-05-12T09:49:38.936Z,102032.50
2023-05-12T09:52:06.881Z,102035.48
2023-05-12T09:54:35.050Z,102041.95
2023-05-12T09:57:05.273Z,102043.83
2023-05-12T09:59:36.360Z,102046.55
2023-05-12T10:02:09.088Z,102044.23
2023-05-12T10:05:00.465Z,102044.25
2023-05-12T10:07:29.852Z,102041.91
2023-05-12T10:10:01.177Z,102044.61
2023-05-12T10:12:29.746Z,102047.50
2023-05-12T10:14:59.664Z,102051.83
2023-05-12T10:17:29.172Z,102053.23
2023-05-12T10:19:58.326Z,102050.89
2023-05-12T10:22:28.179Z,102054.45
2023-05-12T10:24:57.664Z,102056.23
2023-05-12T10:27:26.828Z,102059.44
2023-05-12T10:29:55.831Z,102060.15
2023-05-12T10:32:23.866Z,102060.15
2023-05-12T10:34:52.223Z,102063.36
2023-05-12T10:37:23.393Z,102062.96
2023-05-12T10:39:52.950Z,102065.44
2023-05-12T10:42:25.693Z,102059.05
2023-05-12T10:44:56.597Z,102052.11
2023-05-12T10:47:37.531Z,102055.70
2023-05-12T10:50:06.556Z,102053.40
2023-05-12T10:52:34.631Z,102049.64
2023-05-12T10:55:04.309Z,102050.36
2023-05-12T10:57:33.657Z,102051.64
2023-05-12T11:00:03.547Z,102045.71
2023-05-12T11:02:34.493Z,102044.97
2023-05-12T11:05:13.092Z,102043.89
2023-05-12T11:07:47.947Z,102041.65
2023-05-12T11:10:17.552Z,102041.59
2023-05-12T11:12:46.276Z,102037.36
2023-05-12T11:15:17.293Z,102034.52
2023-05-12T11:17:46.746Z,102038.33
2023-05-12T11:20:25.198Z,102041.37
2023-05-12T11:22:54.708Z,102042.24
2023-05-12T11:25:22.973Z,102039.10
2023-05-12T11:27:51.664Z,102044.42
2023-05-12T11:30:20.077Z,102037.19
2023-05-12T11:32:48.496Z,102044.56
2023-05-12T11:35:19.959Z,102041.15
2023-05-12T11:37:48.259Z,102039.36
2023-05-12T11:40:17.217Z,102037.36
2023-05-12T11:42:48.939Z,102040.00
2023-05-12T11:45:29.062Z,102048.30
2023-05-12T11:48:14.235Z,102044.34
2023-05-12T11:50:49.002Z,102045.53
2023-05-12T11:53:18.949Z,102046.91
2023-05-12T11:55:57.082Z,102045.52
2023-05-12T11:58:29.316Z,102040.54
2023-05-12T12:00:57.750Z,102028.88
2023-05-12T12:03:25.939Z,102027.52
2023-05-12T12:06:00.159Z,102027.77
2023-05-12T12:08:28.934Z,102033.07
2023-05-12T12:10:57.290Z,102033.73
2023-05-12T12:13:26.413Z,102035.55
2023-05-12T12:15:54.494Z,102042.17
2023-05-12T12:18:22.655Z,102043.08
2023-05-12T12:20:50.771Z,102046.19
2023-05-12T12:23:18.776Z,102048.80
2023-05-12T12:25:46.835Z,102053.69
2023-05-12T12:28:14.915Z,102054.65
2023-05-12T12:30:43.344Z,102056.14
2023-05-12T12:33:11.364Z,102056.00
2023-05-12T12:35:39.543Z,102054.75
2023-05-12T12:38:07.732Z,102058.15
2023-05-12T12:40:35.700Z,102061.20
2023-05-12T12:43:04.061Z,102066.21
2023-05-12T12:45:32.235Z,102066.23
2023-05-12T12:48:00.242Z,102072.15
2023-05-12T12:50:28.997Z,102075.90
2023-05-12T12:52:56.960Z,102074.64
2023-05-12T12:55:26.058Z,102078.24
2023-05-12T12:57:54.036Z,102076.83
2023-05-12T13:00:23.796Z,102077.73
2023-05-12T13:02:52.140Z,102072.71
2023-05-12T13:05:20.612Z,102076.48
2023-05-12T13:07:48.964Z,102070.40
2023-05-12T13:10:17.252Z,102075.25
2023-05-12T13:12:45.249Z,102078.12
2023-05-12T13:15:13.299Z,102082.60
2023-05-12T13:17:41.416Z,102096.52
2023-05-12T13:20:10.054Z,102095.74
2023-05-12T13:22:38.128Z,102093.19
2023-05-12T13:25:08.226Z,102096.15
2023-05-12T13:27:36.624Z,102096.56
2023-05-12T13:30:07.329Z,102092.70
2023-05-12T13:32:35.719Z,102089.77
2023-05-12T13:35:04.437Z,102089.61
2023-05-12T13:37:32.907Z,102093.16
2023-05-12T13:40:00.915Z,102096.68
2023-05-12T13:42:28.939Z,102102.34
2023-05-12T13:44:56.952Z,102100.89
2023-05-12T13:47:25.088Z,102099.83
2023-05-12T13:49:53.260Z,102098.27
2023-05-12T13:52:21.204Z,102095.68
2023-05-12T13:54:49.353Z,102103.44
2023-05-12T13:57:17.588Z,102105.44
2023-05-12T13:59:45.859Z,102110.80
2023-05-12T14:02:14.526Z,102105.58
2023-05-12T14:04:42.845Z,102111.61
2023-05-12T14:07:10.889Z,102112.23
2023-05-12T14:09:38.864Z,102115.91
2023-05-12T14:12:08.129Z,102112.06
2023-05-12T14:14:36.539Z,102110.16
2023-05-12T14:17:05.218Z,102118.61
2023-05-12T14:19:33.397Z,102120.95
2023-05-12T14:22:03.201Z,102117.96
2023-05-12T14:24:32.526Z,102121.80
2023-05-12T14:27:00.790Z,102120.48
2023-05-12T14:29:28.748Z,102123.62
2023-05-12T14:31:57.209Z,102122.61
2023-05-12T14:34:25.511Z,102122.36
2023-05-12T14:36:54.194Z,102124.40
2023-05-12T14:39:22.163Z,102124.81
2023-05-12T14:41:50.118Z,102124.36
2023-05-12T14:44:18.026Z,102125.61
2023-05-12T14:46:46.478Z,102126.55
2023-05-12T14:49:14.594Z,102131.39
2023-05-12T14:51:43.657Z,102132.65
2023-05-12T14:54:22.174Z,102130.88
2023-05-12T14:56:53.217Z,102131.90
2023-05-12T14:59:21.778Z,102129.63
2023-05-12T15:01:50.231Z,102132.25
2023-05-12T15:04:18.309Z,102133.81
2023-05-12T15:06:46.725Z,102131.50
2023-05-12T15:09:14.648Z,102135.66
2023-05-12T15:11:45.437Z,102131.19
2023-05-12T15:14:13.710Z,102133.65
2023-05-12T15:16:41.971Z,102137.91
2023-05-12T15:19:10.508Z,102138.54
2023-05-12T15:21:38.841Z,102135.90
2023-05-12T15:24:07.038Z,102132.97
2023-05-12T15:26:36.727Z,102130.08
2023-05-12T15:29:05.528Z,102126.42
2023-05-12T15:31:33.540Z,102126.54
2023-05-12T15:34:01.899Z,102132.65
2023-05-12T15:36:31.118Z,102133.80
2023-05-12T15:38:59.691Z,102131.05
2023-05-12T15:41:27.817Z,102129.20
2023-05-12T15:43:56.010Z,102131.23
2023-05-12T15:46:24.559Z,102128.63
2023-05-12T15:48:52.850Z,102133.84
2023-05-12T15:51:21.024Z,102132.91
2023-05-12T15:53:50.941Z,102132.52
2023-05-12T15:56:19.115Z,102134.02
2023-05-12T15:58:47.289Z,102129.98
2023-05-12T16:01:15.474Z,102129.48
2023-05-12T16:03:43.630Z,102132.34
2023-05-12T16:06:11.984Z,102128.60
2023-05-12T16:08:39.891Z,102131.29
2023-05-12T16:11:07.923Z,102125.98
2023-05-12T16:13:36.136Z,102127.86
2023-05-12T16:16:05.479Z,102132.30
2023-05-12T16:18:33.850Z,102130.27
2023-05-12T16:21:02.913Z,102131.60
2023-05-12T16:23:31.199Z,102127.73
2023-05-12T16:25:59.493Z,102120.75
2023-05-12T16:28:28.169Z,102113.70
2023-05-12T16:30:56.727Z,102116.95
2023-05-12T16:33:24.916Z,102116.00
2023-05-12T16:35:52.967Z,102116.96
2023-05-12T16:38:21.341Z,102115.14
2023-05-12T16:40:49.516Z,102114.17
2023-05-12T16:43:17.692Z,102110.53
2023-05-12T16:45:45.798Z,102110.00
2023-05-12T16:48:13.864Z,102110.90
2023-05-12T16:50:41.909Z,102109.61
2023-05-12T16:53:09.985Z,102109.83
2023-05-12T16:55:37.923Z,102108.63
2023-05-12T16:58:07.286Z,102110.80
2023-05-12T17:00:35.276Z,102110.60
2023-05-12T17:03:04.906Z,102112.45
2023-05-12T17:05:34.035Z,102107.16
2023-05-12T17:08:02.306Z,102117.70
2023-05-12T17:10:30.678Z,102111.58
2023-05-12T17:12:58.754Z,102117.05
2023-05-12T17:15:27.486Z,102111.00
2023-05-12T17:17:55.826Z,102117.77
2023-05-12T17:20:24.372Z,102116.19
2023-05-12T17:22:52.369Z,102112.17
2023-05-12T17:25:22.285Z,102113.73
2023-05-12T17:27:50.869Z,102113.23
2023-05-12T17:30:18.832Z,102111.52
2023-05-12T17:32:47.299Z,102109.64
2023-05-12T17:35:15.500Z,102105.60
2023-05-12T17:37:43.610Z,102104.94
2023-05-12T17:40:16.658Z,102107.16
2023-05-12T17:42:45.347Z,102109.59
2023-05-12T17:45:16.380Z,102108.63
2023-05-12T17:47:45.209Z,102108.71
2023-05-12T17:50:15.225Z,102107.23
2023-05-12T17:52:43.848Z,102112.16
2023-05-12T17:55:12.059Z,102111.00
2023-05-12T17:57:40.325Z,102109.86
2023-05-12T18:00:12.812Z,102108.33
2023-05-12T18:02:45.044Z,102106.66
2023-05-12T18:05:13.246Z,102107.11
2023-05-12T18:07:41.427Z,102106.86
2023-05-12T18:10:11.273Z,102103.02
2023-05-12T18:12:39.522Z,102098.83
2023-05-12T18:15:08.926Z,102099.67
2023-05-12T18:17:37.266Z,102101.63
2023-05-12T18:20:06.849Z,102098.92
2023-05-12T18:22:35.083Z,102101.24
2023-05-12T18:25:03.151Z,102100.82
2023-05-12T18:27:31.144Z,102103.15
2023-05-12T18:29:59.095Z,102102.85
2023-05-12T18:32:27.478Z,102106.61
2023-05-12T18:34:55.838Z,102106.07
2023-05-12T18:37:24.223Z,102109.24
2023-05-12T18:39:54.477Z,102109.42
2023-05-12T18:42:22.637Z,102112.41
2023-05-12T18:44:50.582Z,102116.44
2023-05-12T18:47:18.962Z,102115.85
2023-05-12T18:49:47.133Z,102116.23
2023-05-12T18:52:15.073Z,102118.13
2023-05-12T18:54:44.296Z,102120.80
2023-05-12T18:57:12.470Z,102125.23
2023-05-12T18:59:40.352Z,102123.52
2023-05-12T19:02:08.524Z,102129.87
2023-05-12T19:04:36.799Z,102127.05
2023-05-12T19:07:06.810Z,102129.48
2023-05-12T19:09:35.596Z,102130.85
2023-05-12T19:12:05.963Z,102129.55
2023-05-12T19:14:34.595Z,102130.38
2023-05-12T19:17:02.513Z,102129.96
2023-05-12T19:19:31.160Z,102136.52
2023-05-12T19:21:59.134Z,102135.80
2023-05-12T19:24:27.264Z,102134.39
2023-05-12T19:26:55.944Z,102136.88
2023-05-12T19:29:24.066Z,102144.48
2023-05-12T19:31:53.249Z,102144.64
2023-05-12T19:34:21.743Z,102142.34
2023-05-12T19:36:51.948Z,102147.14
2023-05-12T19:39:20.054Z,102147.75
2023-05-12T19:41:48.211Z,102150.23
2023-05-12T19:44:16.283Z,102151.08
2023-05-12T19:46:46.003Z,102151.22
2023-05-12T19:49:14.900Z,102152.27
2023-05-12T19:51:42.982Z,102153.89
2023-05-12T19:54:11.001Z,102151.98
2023-05-12T19:56:39.103Z,102154.25
2023-05-12T19:59:07.038Z,102157.13
2023-05-12T20:01:35.103Z,102159.16
2023-05-12T20:04:03.431Z,102164.34
2023-05-12T20:06:31.396Z,102164.03
2023-05-12T20:08:59.559Z,102168.84
2023-05-12T20:11:27.628Z,102172.17
2023-05-12T20:13:55.916Z,102169.33
2023-05-12T20:16:23.993Z,102170.75
2023-05-12T20:18:52.585Z,102176.18
2023-05-12T20:21:20.940Z,102177.19
2023-05-12T20:23:49.014Z,102178.91
2023-05-12T20:26:17.185Z,102180.27
2023-05-12T20:28:45.337Z,102178.71
2023-05-12T20:31:13.673Z,102180.63
2023-05-12T20:33:42.121Z,102186.27
2023-05-12T20:36:10.303Z,102181.23
2023-05-12T20:38:38.360Z,102183.20
2023-05-12T20:41:07.972Z,102185.13
2023-05-12T20:43:36.143Z,102182.98
2023-05-12T20:46:05.104Z,102184.33
2023-05-12T20:48:33.617Z,102184.25
2023-05-12T20:51:10.781Z,102184.95
2023-05-12T20:53:39.492Z,102185.66
2023-05-12T20:56:08.483Z,102188.45
2023-05-12T20:58:36.820Z,102188.86
2023-05-12T21:01:05.081Z,102192.10
2023-05-12T21:03:34.005Z,102191.13
2023-05-12T21:06:02.824Z,102190.48
2023-05-12T21:08:31.266Z,102194.36
2023-05-12T21:11:00.194Z,102194.02
2023-05-12T21:13:28.126Z,102197.19
2023-05-12T21:15:56.640Z,102195.62
2023-05-12T21:18:24.636Z,102196.34
2023-05-12T21:20:52.780Z,102198.09
2023-05-12T21:23:20.761Z,102191.28
2023-05-12T21:25:49.308Z,102191.23
2023-05-12T21:28:17.719Z,102196.17
2023-05-12T21:30:46.095Z,102189.20
2023-05-12T21:33:14.673Z,102184.62
2023-05-12T21:35:42.649Z,102181.98
2023-05-12T21:38:10.714Z,102180.42
2023-05-12T21:40:38.900Z,102176.38
2023-05-12T21:43:07.089Z,102175.73
2023-05-12T21:45:35.084Z,102170.79
2023-05-12T21:48:03.319Z,102174.04
2023-05-12T21:50:31.301Z,102166.50
2023-05-12T21:52:59.449Z,102171.19
2023-05-12T21:55:27.625Z,102173.88
2023-05-12T21:57:55.541Z,102173.20
2023-05-12T22:00:23.742Z,102171.98
2023-05-12T22:02:52.135Z,102176.41
2023-05-12T22:05:20.356Z,102174.27
2023-05-12T22:07:48.502Z,102170.16
2023-05-12T22:10:16.883Z,102171.77
2023-05-12T22:12:46.077Z,102176.54
2023-05-12T22:15:14.297Z,102178.64
2023-05-12T22:17:42.333Z,102180.38
2023-05-12T22:20:11.263Z,102180.72
2023-05-12T22:22:39.284Z,102182.50
2023-05-12T22:25:08.504Z,102184.83
2023-05-12T22:27:37.492Z,102188.57
2023-05-12T22:30:06.570Z,102189.80
2023-05-12T22:32:34.557Z,102191.60
2023-05-12T22:35:02.936Z,102189.70
2023-05-12T22:37:30.909Z,102188.41
2023-05-12T22:39:58.903Z,102194.83
2023-05-12T22:42:26.929Z,102195.55
2023-05-12T22:44:54.897Z,102196.14
2023-05-12T22:47:23.074Z,102195.94
2023-05-12T22:49:51.144Z,102195.88
2023-05-12T22:52:19.053Z,102191.54
2023-05-12T22:54:46.979Z,102193.46
2023-05-12T22:57:15.256Z,102193.38
2023-05-12T22:59:43.201Z,102193.50
2023-05-12T23:02:11.401Z,102188.23
2023-05-12T23:04:39.574Z,102190.15
2023-05-12T23:07:09.167Z,102188.16
2023-05-12T23:09:37.469Z,102184.46
2023-05-12T23:12:06.043Z,102185.34
2023-05-12T23:14:34.071Z,102185.75
2023-05-12T23:17:02.121Z,102186.56
2023-05-12T23:19:30.157Z,102185.34
2023-05-12T23:21:58.227Z,102186.94
2023-05-12T23:24:26.146Z,102187.67
2023-05-12T23:26:54.310Z,102187.69
2023-05-12T23:29:22.260Z,102190.17
2023-05-12T23:31:50.498Z,102188.05
2023-05-12T23:34:18.437Z,102191.82
2023-05-12T23:36:46.853Z,102189.53
2023-05-12T23:39:14.780Z,102188.45
2023-05-12T23:41:42.897Z,102187.36
2023-05-12T23:44:11.408Z,102183.94
2023-05-12T23:46:39.702Z,102185.88
2023-05-12T23:49:07.851Z,102185.16
2023-05-12T23:51:35.903Z,102194.65
2023-05-12T23:54:03.881Z,102200.36
2023-05-12T23:56:31.940Z,102201.45
2023-05-12T23:58:59.910Z,102205.39
